Seymour, Illinois
Current Conditions -  °F | °C
As of 7:53 PM on Saturday 20 Dec 2014 (Local Time) from KCMI Reporting Station
Overcast Overcast  
Wind Chill: 22°   Ceiling: 2300
Heat Index: 30°   Visibility: 8mi
Dew Point: 26°   Wind: 8mph
Humidity: 85%   Direction: 130°SE
Pressure: 30.27"   Gusts: NA
Location:  40.11°N, 88.43°W
Report Text: KCMI 210153Z 13007KT 8SM OVC023 M01/M03 A3027 RMK AO2 SLP260 T10111033
Loading
Personal Weather Stations






























Interactive Weather Map New forecast layout! Learn more

10-Day Weather Forecast

Advertisements
Track Severe Weather on mobile